Time;durP1;ratioP1;P1;durP2;ratioP2;P2;SDS_P1;SDS_P2;PMS_P1;PMS_P2;Temp;Humidity;BMP_temperature;BMP_pressure;BME280_temperature;BME280_humidity;BME280_pressure;Samples;Min_cycle;Max_cycle;Signal;HPM_P1;HPM_P2
2022/06/24 00:00:11;;;;;;;;;;;;;;;16.42;100.00;98026.09;5055863;28;19981;-80
2022/06/24 00:02:39;;;;;;;;;;;;;;;15.50;100.00;98030.25;5056145;28;20409;-80
2022/06/24 00:05:10;;;;;;;;;;;;;;;15.44;100.00;98024.50;5056048;28;19928;-80
2022/06/24 00:07:45;;;;;;;;;;;;;;;16.16;100.00;98032.31;5039319;28;19924;-81
2022/06/24 00:10:21;;;;;;;;;;;;;;;15.91;100.00;98032.09;5056380;28;20432;-81
2022/06/24 00:12:50;;;;;;;;;;;;;;;15.13;100.00;98035.31;5058285;28;20061;-80
2022/06/24 00:15:24;;;;;;;;;;;;;;;14.70;100.00;98040.72;5043535;28;19924;-80
2022/06/24 00:17:52;;;;;;;;;;;;;;;14.78;100.00;98037.09;5077941;28;19928;-80
2022/06/24 00:20:20;;;;;;;;;;;;;;;14.75;100.00;98032.44;5059748;28;19928;-80
2022/06/24 00:22:48;;;;;;;;;;;;;;;14.31;100.00;98031.34;5077492;28;20450;-80
2022/06/24 00:25:17;;;;;;;;;;;;;;;14.25;100.00;98028.38;5060024;28;19982;-80
2022/06/24 00:28:18;;;;;;;;;;;;;;;15.10;100.00;98025.03;5059436;28;19929;-81
2022/06/24 00:30:53;;;;;;;;;;;;;;;15.23;100.00;98017.13;5016211;28;20011;-80
2022/06/24 00:33:22;;;;;;;;;;;;;;;15.70;100.00;98007.88;5077371;28;19924;-81
2022/06/24 00:35:50;;;;;;;;;;;;;;;15.20;100.00;97994.81;5077305;28;19963;-80
2022/06/24 00:38:22;;;;;;;;;;;;;;;14.86;100.00;97990.47;5077207;28;19952;-81
2022/06/24 00:40:52;;;;;;;;;;;;;;;14.65;100.00;97987.94;5059786;28;19978;-80
2022/06/24 00:43:25;;;;;;;;;;;;;;;15.01;100.00;97982.13;5077190;28;20373;-80
2022/06/24 00:45:58;;;;;;;;;;;;;;;15.04;100.00;97986.78;5077340;28;19986;-80
2022/06/24 00:48:27;;;;;;;;;;;;;;;15.23;100.00;97972.13;5059438;28;19960;-80
2022/06/24 00:50:55;;;;;;;;;;;;;;;15.25;100.00;97978.03;5059037;28;19960;-80
2022/06/24 00:53:22;;;;;;;;;;;;;;;15.16;100.00;97975.28;5059147;28;20023;-80
2022/06/24 00:55:50;;;;;;;;;;;;;;;15.01;100.00;97976.50;5076975;28;19928;-80
2022/06/24 00:58:18;;;;;;;;;;;;;;;14.54;100.00;97974.41;5042948;28;20298;-80
2022/06/24 01:00:47;;;;;;;;;;;;;;;14.49;100.00;97970.22;5026833;28;19928;-80
2022/06/24 01:03:16;;;;;;;;;;;;;;;15.25;100.00;97958.31;5059232;28;20015;-80
2022/06/24 01:05:43;;;;;;;;;;;;;;;15.65;100.00;97953.00;5076594;28;19928;-80
2022/06/24 01:08:13;;;;;;;;;;;;;;;15.92;100.00;97944.28;5059305;28;19924;-81
2022/06/24 01:10:40;;;;;;;;;;;;;;;15.85;100.00;97939.03;5058953;28;20027;-80
2022/06/24 01:13:09;;;;;;;;;;;;;;;16.03;100.00;97944.47;5041953;28;19977;-81
2022/06/24 01:15:37;;;;;;;;;;;;;;;16.04;100.00;97940.38;5042870;28;19931;-81
2022/06/24 01:18:05;;;;;;;;;;;;;;;15.93;100.00;97933.81;5058885;28;19931;-80
2022/06/24 01:20:33;;;;;;;;;;;;;;;16.08;100.00;97935.31;5076477;28;19924;-81
2022/06/24 01:23:00;;;;;;;;;;;;;;;16.33;100.00;97944.44;5076209;28;19936;-81
2022/06/24 01:25:29;;;;;;;;;;;;;;;15.47;100.00;97936.28;5058696;28;20007;-80
2022/06/24 01:27:57;;;;;;;;;;;;;;;15.45;100.00;97938.81;5058756;28;19924;-81
2022/06/24 01:30:25;;;;;;;;;;;;;;;15.82;100.00;97948.47;5025224;28;20403;-80
2022/06/24 01:32:52;;;;;;;;;;;;;;;15.93;100.00;97943.00;5076224;28;19963;-80
2022/06/24 01:35:20;;;;;;;;;;;;;;;15.73;100.00;97944.97;5076115;28;19928;-80
2022/06/24 01:37:47;;;;;;;;;;;;;;;15.73;100.00;97936.50;5058057;28;19928;-81
2022/06/24 01:40:15;;;;;;;;;;;;;;;15.68;100.00;97934.38;5076278;28;19967;-80
2022/06/24 01:42:42;;;;;;;;;;;;;;;15.98;100.00;97941.56;5058216;28;19924;-80
2022/06/24 01:45:10;;;;;;;;;;;;;;;15.41;100.00;97952.31;5058548;28;19934;-80
2022/06/24 01:47:37;;;;;;;;;;;;;;;15.77;100.00;97946.31;5058311;28;19964;-80
2022/06/24 01:50:05;;;;;;;;;;;;;;;16.07;100.00;97942.22;5057698;28;20260;-80
2022/06/24 01:52:33;;;;;;;;;;;;;;;16.18;100.00;97939.59;5075955;28;19993;-80
2022/06/24 01:55:01;;;;;;;;;;;;;;;16.10;100.00;97943.28;5075981;28;19931;-80
2022/06/24 01:57:29;;;;;;;;;;;;;;;15.11;100.00;97935.78;5076022;28;19925;-80
2022/06/24 01:59:59;;;;;;;;;;;;;;;15.61;100.00;97931.94;5058308;28;20337;-80
2022/06/24 02:02:28;;;;;;;;;;;;;;;15.89;100.00;97936.81;5057558;28;20049;-80
2022/06/24 02:04:55;;;;;;;;;;;;;;;15.36;100.00;97941.66;5040779;28;19928;-80
2022/06/24 02:07:23;;;;;;;;;;;;;;;15.31;100.00;97935.94;5058041;28;19947;-80
2022/06/24 02:15:22;;;;;;;;;;;;;;;14.99;100.00;97942.44;5075555;28;19960;-80
2022/06/24 02:17:49;;;;;;;;;;;;;;;14.98;100.00;97933.22;5057612;28;19932;-80
2022/06/24 02:20:17;;;;;;;;;;;;;;;15.01;100.00;97926.63;5075168;28;20587;-80
2022/06/24 02:22:44;;;;;;;;;;;;;;;14.80;100.00;97929.78;5075275;28;19974;-80
2022/06/24 02:25:12;;;;;;;;;;;;;;;15.02;100.00;97919.78;5075478;28;19978;-80
2022/06/24 02:27:40;;;;;;;;;;;;;;;15.08;100.00;97923.47;5057368;28;20379;-80
2022/06/24 02:30:08;;;;;;;;;;;;;;;15.16;100.00;97927.44;5057318;28;19924;-80
2022/06/24 02:32:35;;;;;;;;;;;;;;;15.05;100.00;97915.22;5075257;28;19947;-80
2022/06/24 02:35:04;;;;;;;;;;;;;;;15.18;100.00;97919.31;5074211;28;19924;-80
2022/06/24 02:37:32;;;;;;;;;;;;;;;15.25;100.00;97907.69;5040429;28;20444;-80
2022/06/24 02:40:45;;;;;;;;;;;;;;;14.97;100.00;97914.78;5075137;28;19932;-80
2022/06/24 02:42:53;;;;;;;;;;;;;;;15.32;100.00;97912.16;5057118;28;19971;-80
2022/06/24 02:45:20;;;;;;;;;;;;;;;15.08;100.00;97908.63;5057331;28;19928;-80
2022/06/24 02:47:47;;;;;;;;;;;;;;;15.43;100.00;97901.94;5074766;28;20388;-80
2022/06/24 02:50:15;;;;;;;;;;;;;;;15.47;100.00;97896.88;5074634;28;19931;-80
2022/06/24 02:52:42;;;;;;;;;;;;;;;15.54;100.00;97890.88;5056956;28;19978;-80
2022/06/24 02:55:10;;;;;;;;;;;;;;;15.31;100.00;97894.50;5056880;28;20280;-80
2022/06/24 02:57:37;;;;;;;;;;;;;;;14.47;100.00;97893.25;5056716;28;20295;-80
2022/06/24 03:00:05;;;;;;;;;;;;;;;14.54;100.00;97890.09;5074562;28;19924;-80
2022/06/24 03:02:33;;;;;;;;;;;;;;;14.93;100.00;97897.34;5074403;28;19971;-80
2022/06/24 03:05:00;;;;;;;;;;;;;;;15.04;100.00;97891.91;5040480;28;19998;-80
2022/06/24 03:07:27;;;;;;;;;;;;;;;15.14;100.00;97890.59;5074594;28;19932;-80
2022/06/24 03:09:55;;;;;;;;;;;;;;;15.14;100.00;97895.44;5040418;28;20391;-80
2022/06/24 03:12:22;;;;;;;;;;;;;;;14.63;100.00;97900.53;5074454;28;19925;-80
2022/06/24 03:14:50;;;;;;;;;;;;;;;14.67;100.00;97893.47;5074541;28;19936;-80
2022/06/24 03:17:17;;;;;;;;;;;;;;;14.19;100.00;97905.88;5056601;28;19950;-80
2022/06/24 03:19:44;;;;;;;;;;;;;;;13.84;100.00;97905.53;5074532;28;19967;-80
2022/06/24 03:22:12;;;;;;;;;;;;;;;14.36;100.00;97904.25;5074528;28;19925;-80
2022/06/24 03:24:40;;;;;;;;;;;;;;;14.79;100.00;97891.66;5074372;28;20412;-80
2022/06/24 03:27:08;;;;;;;;;;;;;;;14.50;100.00;97892.31;5056461;28;19955;-80
2022/06/24 03:29:36;;;;;;;;;;;;;;;14.43;100.00;97889.88;5074442;28;19928;-80
2022/06/24 03:32:03;;;;;;;;;;;;;;;14.55;100.00;97880.41;5074132;28;19950;-80
2022/06/24 03:34:30;;;;;;;;;;;;;;;14.57;100.00;97877.88;5056625;28;19924;-80
2022/06/24 03:36:58;;;;;;;;;;;;;;;14.39;100.00;97875.19;5056402;28;20426;-80
2022/06/24 03:39:25;;;;;;;;;;;;;;;14.45;100.00;97874.06;5074227;28;20407;-80
2022/06/24 03:41:53;;;;;;;;;;;;;;;14.40;100.00;97883.16;5055903;28;19974;-80
2022/06/24 03:44:20;;;;;;;;;;;;;;;14.19;100.00;97881.34;5039676;28;20019;-80
2022/06/24 03:46:47;;;;;;;;;;;;;;;13.75;100.00;97890.75;5073884;28;19924;-80
2022/06/24 03:49:15;;;;;;;;;;;;;;;13.34;100.00;97885.88;5074432;28;19963;-80
2022/06/24 03:51:43;;;;;;;;;;;;;;;13.49;100.00;97886.78;5055975;28;19944;-80
2022/06/24 03:54:10;;;;;;;;;;;;;;;12.76;100.00;97886.00;5074168;28;19929;-80
2022/06/24 03:56:38;;;;;;;;;;;;;;;12.71;100.00;97892.22;5056277;28;19931;-80
2022/06/24 03:59:09;;;;;;;;;;;;;;;13.15;100.00;97889.91;5056134;28;19931;-80
2022/06/24 04:01:36;;;;;;;;;;;;;;;13.69;100.00;97873.00;5073902;28;19925;-80
2022/06/24 04:04:04;;;;;;;;;;;;;;;14.23;100.00;97867.97;5056167;28;19963;-80
2022/06/24 04:06:31;;;;;;;;;;;;;;;14.49;100.00;97862.66;5073972;28;20471;-80
2022/06/24 04:08:59;;;;;;;;;;;;;;;14.68;100.00;97858.47;5073968;28;19979;-80
2022/06/24 04:11:26;;;;;;;;;;;;;;;14.41;100.00;97853.03;5055950;28;19947;-80
2022/06/24 04:13:53;;;;;;;;;;;;;;;14.29;100.00;97843.59;5054413;28;19975;-80
2022/06/24 04:16:21;;;;;;;;;;;;;;;14.13;100.00;97846.00;5054277;28;19925;-80
2022/06/24 04:18:50;;;;;;;;;;;;;;;14.31;100.00;97843.09;5055110;28;20033;-80
2022/06/24 04:21:18;;;;;;;;;;;;;;;13.93;100.00;97842.97;5072427;28;19925;-80
2022/06/24 04:23:46;;;;;;;;;;;;;;;14.06;100.00;97846.31;5054443;28;19982;-80
2022/06/24 04:26:14;;;;;;;;;;;;;;;14.37;100.00;97841.19;5054734;28;19932;-80
2022/06/24 04:28:41;;;;;;;;;;;;;;;13.92;100.00;97835.78;5072290;28;20304;-80
2022/06/24 04:31:09;;;;;;;;;;;;;;;13.81;100.00;97841.16;5054787;28;19978;-80
2022/06/24 04:33:36;;;;;;;;;;;;;;;13.93;100.00;97840.16;5073421;28;19931;-80
2022/06/24 04:36:09;;;;;;;;;;;;;;;14.07;100.00;97834.59;5055642;28;20015;-80
2022/06/24 04:38:37;;;;;;;;;;;;;;;13.93;100.00;97834.53;5073664;28;19924;-80
2022/06/24 04:41:12;;;;;;;;;;;;;;;14.01;100.00;97822.47;5073401;28;19978;-80
2022/06/24 04:43:40;;;;;;;;;;;;;;;13.92;100.00;97818.91;5038992;28;19925;-80
2022/06/24 04:46:08;;;;;;;;;;;;;;;14.41;100.00;97827.72;5056081;28;19968;-80
2022/06/24 04:48:36;;;;;;;;;;;;;;;14.32;100.00;97830.59;5055825;28;20421;-80
2022/06/24 04:51:04;;;;;;;;;;;;;;;14.34;100.00;97828.88;5073344;28;19928;-80
2022/06/24 04:53:32;;;;;;;;;;;;;;;13.72;100.00;97827.91;5073367;28;19925;-80
2022/06/24 04:55:59;;;;;;;;;;;;;;;14.16;100.00;97837.38;5073406;28;20314;-80
2022/06/24 04:58:27;;;;;;;;;;;;;;;14.48;100.00;97832.97;5056900;28;19925;-80
2022/06/24 05:00:54;;;;;;;;;;;;;;;14.30;100.00;97838.72;5058992;28;19960;-80
2022/06/24 05:03:22;;;;;;;;;;;;;;;14.48;100.00;97832.97;5059320;28;19931;-81
2022/06/24 05:05:49;;;;;;;;;;;;;;;14.32;100.00;97834.19;5059772;28;19928;-80
2022/06/24 05:08:17;;;;;;;;;;;;;;;14.53;100.00;97829.53;5076768;28;19956;-80
2022/06/24 05:10:45;;;;;;;;;;;;;;;14.62;100.00;97831.47;5059105;28;19929;-80
2022/06/24 05:13:12;;;;;;;;;;;;;;;14.39;100.00;97835.84;5076530;28;19932;-80
2022/06/24 05:15:39;;;;;;;;;;;;;;;14.49;100.00;97831.75;5058998;28;19929;-80
2022/06/24 05:18:08;;;;;;;;;;;;;;;13.93;100.00;97835.28;5076589;28;19978;-80
2022/06/24 05:20:36;;;;;;;;;;;;;;;14.12;100.00;97838.81;5076596;28;19929;-80
2022/06/24 05:23:03;;;;;;;;;;;;;;;14.03;100.00;97833.22;5058712;28;19963;-80
2022/06/24 05:25:31;;;;;;;;;;;;;;;14.16;100.00;97833.81;5076595;28;20306;-80
2022/06/24 05:28:01;;;;;;;;;;;;;;;14.59;100.00;97826.81;5058853;28;19925;-80
2022/06/24 05:30:28;;;;;;;;;;;;;;;14.94;100.00;97830.59;5058619;28;19968;-80
2022/06/24 05:32:55;;;;;;;;;;;;;;;14.65;100.00;97820.06;5076181;28;19970;-80
2022/06/24 05:35:23;;;;;;;;;;;;;;;14.06;100.00;97823.84;5058567;28;20372;-80
2022/06/24 05:37:51;;;;;;;;;;;;;;;14.56;100.00;97817.31;5058255;28;19935;-80
2022/06/24 05:40:26;;;;;;;;;;;;;;;14.28;100.00;97821.59;5041402;28;20011;-80
2022/06/24 05:42:54;;;;;;;;;;;;;;;14.74;100.00;97816.41;5056735;28;20011;-80
2022/06/24 05:45:22;;;;;;;;;;;;;;;15.24;100.00;97810.47;5056495;28;19971;-81
2022/06/24 05:47:49;;;;;;;;;;;;;;;15.55;100.00;97807.97;5075068;28;19930;-82
2022/06/24 05:50:17;;;;;;;;;;;;;;;15.71;100.00;97804.66;5074695;28;19960;-82
2022/06/24 05:55:30;;;;;;;;;;;;;;;15.41;100.00;97791.09;5074830;28;20016;-80
2022/06/24 05:57:57;;;;;;;;;;;;;;;14.86;100.00;97801.31;5056564;28;20348;-80
2022/06/24 06:00:25;;;;;;;;;;;;;;;15.61;100.00;97799.63;5056675;28;19932;-80
2022/06/24 06:02:53;;;;;;;;;;;;;;;15.85;100.00;97801.03;5074484;28;19931;-80
2022/06/24 06:05:21;;;;;;;;;;;;;;;15.21;100.00;97811.44;5074527;28;19993;-80
2022/06/24 06:07:49;;;;;;;;;;;;;;;15.84;100.00;97807.91;5040191;28;19931;-80
2022/06/24 06:10:16;;;;;;;;;;;;;;;15.98;100.00;97798.66;5074684;28;19925;-80
2022/06/24 06:12:43;;;;;;;;;;;;;;;16.24;100.00;97793.94;5074202;28;19983;-80
2022/06/24 06:15:11;;;;;;;;;;;;;;;16.72;100.00;97787.91;5056090;28;20399;-80
2022/06/24 06:17:39;;;;;;;;;;;;;;;16.96;100.00;97786.41;5056744;28;19924;-80
2022/06/24 06:20:06;;;;;;;;;;;;;;;17.31;100.00;97783.41;5056373;28;19938;-80
2022/06/24 06:22:35;;;;;;;;;;;;;;;17.12;100.00;97785.78;5073646;28;19932;-80
2022/06/24 06:25:03;;;;;;;;;;;;;;;17.48;100.00;97784.34;5055849;28;19931;-80
2022/06/24 06:27:30;;;;;;;;;;;;;;;17.79;100.00;97784.34;5040112;28;19931;-80
2022/06/24 06:29:58;;;;;;;;;;;;;;;18.05;100.00;97768.09;5074121;28;19924;-80
2022/06/24 06:32:25;;;;;;;;;;;;;;;17.73;100.00;97766.59;5070876;28;20937;-80
2022/06/24 06:34:54;;;;;;;;;;;;;;;17.60;100.00;97771.84;5045272;28;19925;-80
2022/06/24 06:37:22;;;;;;;;;;;;;;;16.94;100.00;97771.22;5052751;28;20333;-80
2022/06/24 06:39:50;;;;;;;;;;;;;;;17.70;100.00;97773.25;5073587;28;20018;-80
2022/06/24 06:42:19;;;;;;;;;;;;;;;17.85;100.00;97762.56;5074017;28;19978;-76
2022/06/24 06:44:46;;;;;;;;;;;;;;;18.38;100.00;97764.69;5074823;28;20344;-82
2022/06/24 06:47:13;;;;;;;;;;;;;;;18.67;100.00;97759.44;5074972;28;19978;-80
2022/06/24 06:49:41;;;;;;;;;;;;;;;18.60;100.00;97762.00;5074601;28;19924;-81
2022/06/24 06:52:09;;;;;;;;;;;;;;;18.20;100.00;97765.88;5057208;28;19948;-80
2022/06/24 06:54:37;;;;;;;;;;;;;;;18.62;100.00;97759.41;5074718;28;19949;-81
2022/06/24 06:57:04;;;;;;;;;;;;;;;18.78;100.00;97759.47;5056581;28;19928;-84
2022/06/24 06:59:31;;;;;;;;;;;;;;;19.06;100.00;97757.50;5023179;28;19930;-83
2022/06/24 07:01:59;;;;;;;;;;;;;;;19.28;100.00;97751.88;5074521;28;20439;-84
2022/06/24 07:04:26;;;;;;;;;;;;;;;19.71;100.00;97743.91;5040492;28;19931;-85
2022/06/24 07:06:54;;;;;;;;;;;;;;;18.79;100.00;97748.94;5057183;28;19924;-85
2022/06/24 07:09:21;;;;;;;;;;;;;;;19.39;100.00;97756.78;5056365;28;20019;-85
2022/06/24 07:11:48;;;;;;;;;;;;;;;19.09;100.00;97750.81;5039004;28;20735;-85
2022/06/24 07:14:16;;;;;;;;;;;;;;;19.88;100.00;97747.50;5023250;28;19924;-85
2022/06/24 07:16:44;;;;;;;;;;;;;;;20.32;100.00;97741.78;5057251;28;19924;-85
2022/06/24 07:19:14;;;;;;;;;;;;;;;20.66;100.00;97739.59;5056274;28;19947;-85
2022/06/24 07:21:42;;;;;;;;;;;;;;;21.04;100.00;97735.78;5022844;28;19928;-85
2022/06/24 07:24:10;;;;;;;;;;;;;;;21.69;100.00;97738.66;5023054;28;20638;-85
2022/06/24 07:26:38;;;;;;;;;;;;;;;21.96;100.00;97744.09;5056020;28;19940;-82
2022/06/24 07:29:07;;;;;;;;;;;;;;;22.42;100.00;97741.03;5032681;28;20411;-79
2022/06/24 07:31:35;;;;;;;;;;;;;;;22.97;100.00;97743.22;5035999;28;20427;-83
2022/06/24 07:34:04;;;;;;;;;;;;;;;22.50;100.00;97730.63;5070225;28;20356;-79
2022/06/24 07:36:32;;;;;;;;;;;;;;;22.55;100.00;97732.63;5069528;28;19936;-80
2022/06/24 07:38:59;;;;;;;;;;;;;;;22.54;100.00;97733.16;5070077;28;19975;-77
2022/06/24 07:41:27;;;;;;;;;;;;;;;22.84;100.00;97733.84;5069720;28;20443;-74
2022/06/24 07:43:54;;;;;;;;;;;;;;;23.06;100.00;97725.75;5050821;28;19963;-78
2022/06/24 07:46:22;;;;;;;;;;;;;;;23.11;100.00;97716.34;5069825;28;19929;-79
2022/06/24 07:48:50;;;;;;;;;;;;;;;23.26;100.00;97715.91;5069768;28;19959;-85
2022/06/24 07:51:17;;;;;;;;;;;;;;;22.96;100.00;97713.19;5036331;28;20548;-86
2022/06/24 07:53:46;;;;;;;;;;;;;;;23.38;100.00;97713.63;5020159;28;20010;-86
2022/06/24 07:59:01;;;;;;;;;;;;;;;23.83;100.00;97712.34;5064614;28;19925;-80
2022/06/24 08:01:29;;;;;;;;;;;;;;;22.89;100.00;97710.97;5068669;28;20017;-80
2022/06/24 08:03:58;;;;;;;;;;;;;;;23.05;100.00;97712.81;5069161;28;19928;-79
2022/06/24 08:06:26;;;;;;;;;;;;;;;23.20;100.00;97718.03;5069557;28;19925;-77
2022/06/24 08:08:53;;;;;;;;;;;;;;;23.20;100.00;97720.09;5051167;28;19928;-79
2022/06/24 08:11:20;;;;;;;;;;;;;;;23.58;100.00;97718.75;5068639;28;19931;-78
2022/06/24 08:13:48;;;;;;;;;;;;;;;23.24;100.00;97723.41;5070121;28;19967;-78
2022/06/24 08:16:15;;;;;;;;;;;;;;;22.91;100.00;97716.13;5069364;28;19924;-87
2022/06/24 08:18:43;;;;;;;;;;;;;;;22.15;100.00;97722.22;5068895;28;19928;-78
2022/06/24 08:21:10;;;;;;;;;;;;;;;20.99;100.00;97722.41;5069296;28;20015;-79
2022/06/24 08:23:37;;;;;;;;;;;;;;;20.09;100.00;97725.28;5067929;28;19935;-79
2022/06/24 08:26:05;;;;;;;;;;;;;;;21.07;100.00;97721.31;5050905;28;20314;-79
2022/06/24 08:28:33;;;;;;;;;;;;;;;21.61;100.00;97723.47;5069527;28;19924;-79
2022/06/24 08:31:01;;;;;;;;;;;;;;;21.20;100.00;97729.97;5051386;28;19925;-79
2022/06/24 08:33:31;;;;;;;;;;;;;;;21.98;100.00;97729.34;5070892;28;20449;-81
2022/06/24 08:35:59;;;;;;;;;;;;;;;22.76;100.00;97730.84;5056399;28;19974;-79
2022/06/24 08:38:26;;;;;;;;;;;;;;;23.17;100.00;97727.66;5073516;28;19925;-80
2022/06/24 08:40:54;;;;;;;;;;;;;;;23.44;100.00;97712.25;5053118;28;19925;-81
2022/06/24 08:43:22;;;;;;;;;;;;;;;21.48;100.00;97709.88;5056265;28;19924;-82
2022/06/24 08:45:50;;;;;;;;;;;;;;;21.47;100.00;97716.09;5039527;28;20656;-80
2022/06/24 08:48:19;;;;;;;;;;;;;;;22.03;100.00;97720.78;5073363;28;20377;-82
2022/06/24 08:50:47;;;;;;;;;;;;;;;22.48;100.00;97715.34;5072846;28;19960;-81
2022/06/24 08:53:17;;;;;;;;;;;;;;;21.40;100.00;97704.00;5073514;28;20022;-81
2022/06/24 08:55:48;;;;;;;;;;;;;;;22.49;100.00;97714.81;5053330;28;20027;-77
2022/06/24 08:58:17;;;;;;;;;;;;;;;22.77;100.00;97698.19;5067719;28;20372;-78
2022/06/24 09:00:44;;;;;;;;;;;;;;;22.34;100.00;97702.34;5071254;28;19948;-78
2022/06/24 09:03:12;;;;;;;;;;;;;;;21.61;100.00;97700.75;5071047;28;19925;-79
2022/06/24 09:05:40;;;;;;;;;;;;;;;21.66;100.00;97700.69;5035016;28;19967;-77
2022/06/24 09:08:09;;;;;;;;;;;;;;;22.15;100.00;97705.16;5069247;28;19995;-86
2022/06/24 09:10:39;;;;;;;;;;;;;;;23.02;100.00;97702.50;5071255;28;19934;-85
2022/06/24 09:13:21;;;;;;;;;;;;;;;22.21;100.00;97690.84;5070485;28;19936;-77
2022/06/24 09:15:54;;;;;;;;;;;;;;;21.79;100.00;97700.09;5070530;28;19963;-77
2022/06/24 09:18:22;;;;;;;;;;;;;;;21.25;100.00;97700.00;5070520;28;19978;-81
2022/06/24 09:20:55;;;;;;;;;;;;;;;21.29;100.00;97694.81;5070191;28;20371;-83
2022/06/24 09:23:23;;;;;;;;;;;;;;;21.49;100.00;97697.25;5070981;28;19924;-80
2022/06/24 09:25:52;;;;;;;;;;;;;;;21.31;100.00;97700.75;5036241;28;20208;-80
2022/06/24 09:28:21;;;;;;;;;;;;;;;21.50;100.00;97695.16;5068409;28;19964;-78
2022/06/24 09:30:49;;;;;;;;;;;;;;;22.02;100.00;97699.34;5052458;28;20023;-80
2022/06/24 09:33:18;;;;;;;;;;;;;;;22.42;100.00;97692.66;5070874;28;19979;-81
2022/06/24 09:36:02;;;;;;;;;;;;;;;22.32;100.00;97685.81;5070572;28;19946;-80
2022/06/24 09:38:30;;;;;;;;;;;;;;;22.50;100.00;97685.09;5070562;28;19924;-81
2022/06/24 09:41:04;;;;;;;;;;;;;;;23.44;100.00;97677.28;5069555;28;20371;-81
2022/06/24 09:43:32;;;;;;;;;;;;;;;23.34;100.00;97664.75;5069264;28;20295;-82
2022/06/24 09:46:00;;;;;;;;;;;;;;;23.55;100.00;97657.13;5069621;28;19924;-80
2022/06/24 09:48:32;;;;;;;;;;;;;;;23.61;100.00;97661.44;5069744;28;19959;-81
2022/06/24 09:51:01;;;;;;;;;;;;;;;24.10;100.00;97661.84;5069335;28;19924;-82
2022/06/24 09:53:32;;;;;;;;;;;;;;;24.81;100.00;97659.59;5052077;28;19924;-78
2022/06/24 09:56:00;;;;;;;;;;;;;;;25.55;100.00;97655.25;5052788;28;20483;-82
2022/06/24 09:58:27;;;;;;;;;;;;;;;24.52;100.00;97655.03;5069536;28;19928;-82
2022/06/24 10:00:55;;;;;;;;;;;;;;;23.82;100.00;97645.25;5071765;28;19951;-82
2022/06/24 10:03:22;;;;;;;;;;;;;;;23.16;100.00;97654.88;5038944;28;20611;-82
2022/06/24 10:05:54;;;;;;;;;;;;;;;22.73;100.00;97663.56;5069655;28;19928;-82
2022/06/24 10:08:22;;;;;;;;;;;;;;;21.92;100.00;97663.25;5069181;28;20058;-82
2022/06/24 10:10:54;;;;;;;;;;;;;;;22.57;100.00;97660.94;5069814;28;19924;-78
2022/06/24 10:13:23;;;;;;;;;;;;;;;23.08;100.00;97665.41;5070361;28;19938;-79
2022/06/24 10:15:51;;;;;;;;;;;;;;;22.17;100.00;97662.72;5054092;28;19935;-88
2022/06/24 10:18:20;;;;;;;;;;;;;;;22.97;100.00;97672.03;5020534;28;19932;-86
2022/06/24 10:20:50;;;;;;;;;;;;;;;22.87;100.00;97667.25;5037294;28;20013;-88
2022/06/24 10:23:37;;;;;;;;;;;;;;;22.76;100.00;97664.56;5052951;28;19924;-86
2022/06/24 10:26:22;;;;;;;;;;;;;;;22.65;100.00;97662.66;5037011;28;19932;-87
2022/06/24 10:28:59;;;;;;;;;;;;;;;23.15;100.00;97656.22;5053613;28;19924;-90
2022/06/24 10:31:42;;;;;;;;;;;;;;;23.41;100.00;97672.66;5054516;28;20309;-85
2022/06/24 10:34:11;;;;;;;;;;;;;;;22.35;100.00;97667.66;5021183;28;20375;-85
2022/06/24 10:36:38;;;;;;;;;;;;;;;22.99;100.00;97668.63;5022116;28;20398;-87
2022/06/24 10:39:09;;;;;;;;;;;;;;;23.52;100.00;97666.78;5020879;28;20562;-85
2022/06/24 10:41:37;;;;;;;;;;;;;;;23.69;100.00;97664.41;5070541;28;20375;-85
2022/06/24 10:44:22;;;;;;;;;;;;;;;23.48;100.00;97660.63;5053803;28;19925;-86
2022/06/24 10:47:05;;;;;;;;;;;;;;;22.73;100.00;97669.25;5070207;28;19932;-80
2022/06/24 10:50:13;;;;;;;;;;;;;;;23.11;100.00;97659.38;5071084;28;20015;-79
2022/06/24 10:53:00;;;;;;;;;;;;;;;22.41;100.00;97671.22;5070513;28;20360;-81
2022/06/24 10:55:29;;;;;;;;;;;;;;;23.30;100.00;97665.06;5070155;28;19964;-76
2022/06/24 10:58:06;;;;;;;;;;;;;;;22.47;100.00;97669.06;5068745;28;19925;-76
2022/06/24 11:00:36;;;;;;;;;;;;;;;22.40;100.00;97669.66;5052432;28;20497;-76
2022/06/24 11:03:04;;;;;;;;;;;;;;;22.68;100.00;97667.25;5070513;28;20011;-79
2022/06/24 11:05:32;;;;;;;;;;;;;;;23.01;100.00;97661.09;5071207;28;20011;-79
2022/06/24 11:08:00;;;;;;;;;;;;;;;23.15;100.00;97656.22;5071084;28;19928;-80
2022/06/24 11:10:30;;;;;;;;;;;;;;;22.95;100.00;97657.56;5069124;28;20383;-82
2022/06/24 11:12:59;;;;;;;;;;;;;;;22.63;100.00;97659.56;5071072;28;19928;-79
2022/06/24 11:15:38;;;;;;;;;;;;;;;22.25;100.00;97663.63;5070513;28;19932;-76
2022/06/24 11:18:06;;;;;;;;;;;;;;;23.07;100.00;97653.22;5070502;28;19924;-77
2022/06/24 11:20:35;;;;;;;;;;;;;;;23.09;100.00;97656.31;5068674;28;20367;-77
2022/06/24 11:23:06;;;;;;;;;;;;;;;22.71;100.00;97648.31;5070131;28;19970;-79
2022/06/24 11:25:34;;;;;;;;;;;;;;;21.97;100.00;97657.50;5069664;28;19924;-74
2022/06/24 11:28:02;;;;;;;;;;;;;;;21.39;100.00;97656.25;5069472;28;19928;-78
2022/06/24 11:30:30;;;;;;;;;;;;;;;21.81;100.00;97654.84;5068026;28;19924;-78
2022/06/24 11:32:59;;;;;;;;;;;;;;;22.19;100.00;97648.72;5070276;28;20041;-78
2022/06/24 11:35:28;;;;;;;;;;;;;;;22.45;100.00;97653.81;5052037;28;20014;-78
2022/06/24 11:37:58;;;;;;;;;;;;;;;;;;5069527;28;19978;-78
2022/06/24 11:40:28;;;;;;;;;;;;;;;21.54;100.00;97648.09;5069139;28;20303;-81
2022/06/24 11:42:55;;;;;;;;;;;;;;;21.82;100.00;97633.63;5070375;28;19924;-81
2022/06/24 11:45:33;;;;;;;;;;;;;;;22.13;100.00;97642.31;5070827;28;20399;-82
2022/06/24 11:48:00;;;;;;;;;;;;;;;21.92;100.00;97646.97;5070916;28;19928;-82
2022/06/24 11:50:28;;;;;;;;;;;;;;;21.52;100.00;97642.19;5070617;28;20445;-82
2022/06/24 11:52:56;;;;;;;;;;;;;;;21.59;100.00;97638.75;5070044;28;19929;-82
2022/06/24 11:55:24;;;;;;;;;;;;;;;22.02;100.00;97642.47;5052498;28;20046;-78
2022/06/24 11:57:53;;;;;;;;;;;;;;;21.77;100.00;97637.31;5069444;28;19925;-76
2022/06/24 12:00:21;;;;;;;;;;;;;;;21.49;100.00;97648.16;5068917;28;19990;-85
2022/06/24 12:02:50;;;;;;;;;;;;;;;21.49;100.00;97643.25;5036985;28;19928;-86
2022/06/24 12:05:18;;;;;;;;;;;;;;;21.41;100.00;97639.44;5070812;28;20003;-84
2022/06/24 12:07:47;;;;;;;;;;;;;;;22.09;100.00;97639.03;5071759;28;19924;-85
2022/06/24 12:10:14;;;;;;;;;;;;;;;21.48;100.00;97640.94;5075125;28;19930;-84
2022/06/24 12:13:01;;;;;;;;;;;;;;;21.35;100.00;97641.56;5040480;28;20002;-84
2022/06/24 12:15:33;;;;;;;;;;;;;;;21.68;100.00;97635.56;5057413;28;19924;-84
2022/06/24 12:18:01;;;;;;;;;;;;;;;22.01;100.00;97638.06;5057001;28;19924;-85
2022/06/24 12:20:29;;;;;;;;;;;;;;;21.90;100.00;97632.50;5056984;28;20001;-84
2022/06/24 12:23:13;;;;;;;;;;;;;;;22.19;100.00;97625.22;5055291;28;19947;-85
2022/06/24 12:25:41;;;;;;;;;;;;;;;22.00;100.00;97630.06;5073605;28;19924;-84
2022/06/24 12:28:12;;;;;;;;;;;;;;;22.55;100.00;97618.78;5056679;28;19925;-84
2022/06/24 12:30:40;;;;;;;;;;;;;;;22.56;100.00;97616.72;5071676;28;19946;-85
2022/06/24 12:33:17;;;;;;;;;;;;;;;22.33;100.00;97613.38;5055237;28;20019;-78
2022/06/24 12:35:45;;;;;;;;;;;;;;;21.62;100.00;97608.50;5073078;28;19928;-79
2022/06/24 12:38:18;;;;;;;;;;;;;;;22.48;100.00;97619.38;5073377;28;19932;-80
2022/06/24 12:40:45;;;;;;;;;;;;;;;22.52;100.00;97608.47;5074118;28;20281;-82
2022/06/24 12:43:13;;;;;;;;;;;;;;;21.74;100.00;97596.50;5071870;28;19948;-78
2022/06/24 12:45:42;;;;;;;;;;;;;;;22.76;100.00;97596.25;5071734;28;20265;-77
2022/06/24 12:51:04;;;;;;;;;;;;;;;23.12;100.00;97588.94;5073371;28;20326;-77
2022/06/24 12:53:32;;;;;;;;;;;;;;;22.78;100.00;97585.84;5070029;28;20306;-84
2022/06/24 12:56:00;;;;;;;;;;;;;;;22.53;100.00;97580.78;5075315;28;20065;-82
2022/06/24 12:58:27;;;;;;;;;;;;;;;22.28;100.00;97582.91;5077236;28;19925;-81
2022/06/24 13:00:55;;;;;;;;;;;;;;;21.91;100.00;97577.19;5076033;28;20481;-81